• Join FlightAware (Why Join?)
  • Login
  • US Flag 
10:46AM EST


 

Airport Tracker/Info


-or-


 

Live Flight TrackerFlight Track Log ✈ EJA929 ✈ 14-Aug-2013 ✈ KTCL - KHOU

Flight Track Log - Related Links

Times and Time Zones

All times are in EDT time to prevent confusion due to time zone crossing. See the EJA929 flight status page for this flight to view local times or setup timezone preferences in your user account.

Time Position Orientation Groundspeed Altitude Reporting Facility
EDT Latitude Longitude Course Direction KTS MPH feet Rate Location/Type
01:04PM 33.2094 -87.5619 226° Southwest 211 243 3,700  Level Atlanta Center
01:05PM 33.1603 -87.6069 217° Southwest 300 345 5,000 1,500 Climbing Atlanta Center
01:06PM 33.1128 -87.6786 232° Southwest 308 354 6,500 2,460 Climbing Memphis Center
01:07PM 33.0642 -87.7544 233° Southwest 308 354 9,600 2,220 Climbing Memphis Center
01:08PM 33.0774 -87.8059 220° Southwest  Level FlightAware Approximate
01:08PM 33.0117 -87.8378 233° Southwest 303 349 11,000  Level Memphis Center
01:09PM 33.0053 -87.9018 226° Southwest  Level FlightAware Approximate
01:09PM 32.9589 -87.9186 232° Southwest 323 372 12,800  Level Memphis Center
01:10PM 32.9044 -88.0067 234° Southwest 334 384 14,600 1,500 Climbing Memphis Center
01:11PM 32.8414 -88.1022 232° Southwest 353 406 15,900 1,500 Climbing Memphis Center
01:12PM 32.7847 -88.2000 235° Southwest 364 419 17,700 1,740 Climbing Memphis Center
01:13PM 32.7469 -88.3122 248° West 364 419 19,400 1,500 Climbing Memphis Center
01:14PM 32.7131 -88.4217 250° West 364 419 20,700 1,200 Climbing Memphis Center
01:15PM 32.6711 -88.5383 247° West 369 425 21,900 1,500 Climbing Memphis Center
01:16PM 32.6292 -88.6700 249° West 383 441 23,700 1,500 Climbing Memphis Center
01:17PM 32.5889 -88.7892 248° West 383 441 24,900 1,260 Climbing Memphis Center
01:18PM 32.5467 -88.9106 248° West 395 455 26,300 1,260 Climbing Memphis Center
01:19PM 32.5042 -89.0319 247° West 395 455 27,500 1,140 Climbing Memphis Center
01:20PM 32.4614 -89.1558 248° West 395 455 28,600 1,020 Climbing Memphis Center
01:21PM 32.4189 -89.2867 249° West 407 468 29,600 960 Climbing Memphis Center
01:22PM 32.3739 -89.4153 248° West 420 483 30,600 1,020 Climbing Memphis Center
01:23PM 32.3289 -89.5486 248° West 426 490 31,700 1,020 Climbing Memphis Center
01:24PM 32.2817 -89.6817 247° West 433 498 32,700 960 Climbing Memphis Center
01:25PM 32.2322 -89.8194 247° West 443 510 33,700 1,200 Climbing Memphis Center
01:26PM 32.1847 -89.9547 247° West 448 516 35,200 840 Climbing Memphis Center
01:27PM 32.1189 -90.1442 248° West 450 518 36,000 300 Climbing Houston Center
01:28PM 32.0611 -90.3089 248° West 454 522 36,000  Level Houston Center
01:29PM 32.0125 -90.4483 248° West 462 532 36,000  Level Houston Center
01:31PM 31.9606 -90.5894 247° West 468 539 36,000  Level Houston Center
01:32PM 31.9111 -90.7317 248° West 471 542 36,000  Level Houston Center
01:33PM 31.8525 -90.8914 247° West 470 541 36,000  Level Houston Center
01:34PM 31.7994 -91.0417 247° West 470 541 36,000  Level Houston Center
01:35PM 31.7500 -91.1736 246° West 469 540 36,000  Level Houston Center
01:36PM 31.6992 -91.3153 247° West 471 542 36,000  Level Houston Center
01:37PM 31.6481 -91.4575 247° West 472 543 36,000  Level Houston Center
01:38PM 31.5972 -91.6306 251° West 471 542 36,000  Level Houston Center
01:39PM 31.5614 -91.7772 254° West 469 540 36,000  Level Houston Center
01:40PM 31.5256 -91.9244 254° West 470 541 36,000  Level Houston Center
01:41PM 31.4883 -92.0700 253° West 470 541 36,000  Level Houston Center
01:42PM 31.4522 -92.2206 254° West 476 548 36,000  Level Houston Center
01:43PM 31.4217 -92.3692 256° West 474 545 36,000  Level Houston Center
01:44PM 31.3967 -92.5186 259° West 470 541 36,000  Level Houston Center
01:45PM 31.3667 -92.6992 259° West 475 547 36,000  Level Houston Center
01:46PM 31.3011 -92.8369 241° Southwest 492 566 36,000  Level Houston Center
01:47PM 31.2358 -92.9736 241° Southwest 485 558 36,000  Level Houston Center
01:48PM 31.1708 -93.1114 241° Southwest 487 560 36,000 -120 Level Houston Center
01:49PM 31.1056 -93.2483 241° Southwest 486 559 35,800 -1,020 Descending Houston Center
01:50PM 31.0394 -93.3869 241° Southwest 491 565 34,000 -2,100 Descending Houston Center
01:51PM 30.9558 -93.5636 241° Southwest 520 598 31,600 -2,220 Descending Houston Center
01:52PM 30.8819 -93.7178 241° Southwest 545 627 29,500 -1,980 Descending Houston Center
01:53PM 30.8097 -93.8683 241° Southwest 541 623 27,600 -1,980 Descending Houston Center
01:54PM 30.7397 -94.0150 241° Southwest 528 608 25,500 -2,280 Descending Houston Center
01:55PM 30.6819 -94.1353 241° Southwest 508 585 23,700 -2,220 Descending Houston Center
01:56PM 30.6069 -94.2889 240° Southwest 483 556 21,500 -2,100 Descending Houston Center
01:57PM 30.5386 -94.4267 240° Southwest 469 540 19,300 -2,100 Descending Houston Center
01:58PM 30.4731 -94.5517 239° Southwest 444 511 17,300 -1,860 Descending Houston Center
01:59PM 30.4072 -94.6522 233° Southwest 368 423 15,600 -1,680 Descending Houston Center
02:00PM 30.3489 -94.7444 234° Southwest 355 409 14,000 -1,920 Descending Houston Center
02:01PM 30.2886 -94.8392 234° Southwest 337 388 11,700 -1,740 Descending Houston Center
02:02PM 30.2264 -94.9344 233° Southwest 331 381 10,000 -840 Descending Houston Center
02:03PM 30.1781 -95.0056 232° Southwest 314 361 10,000  Level Houston Center
02:04PM 30.1178 -95.0783 226° Southwest 341 392 10,000  Level Houston Center
02:05PM 30.0331 -95.1153 201° Southwest 283 326 10,000  Level Houston Center
02:06PM 29.9603 -95.1458 200° South 260 299 10,000 -360 Level Houston Center
02:07PM 29.8956 -95.1731 200° South 240 276 9,300 -1,020 Descending Houston Center
02:08PM 29.8331 -95.2000 201° Southwest 243 280 8,000 -1,320 Descending Houston Center
02:09PM 29.7644 -95.2303 201° Southwest 242 278 6,700 -1,020 Descending Houston Center
02:10PM 29.7081 -95.2131 165° South 236 272 6,000 -840 Descending Houston Center
02:11PM 29.6656 -95.1603 133° Southeast 219 252 5,000 -960 Descending Houston Center
02:12PM 29.6228 -95.1081 133° Southeast 222 255 4,100 -540 Descending Houston Center
02:13PM 29.5753 -95.0728 147° Southeast 195 224 4,000 -420 Descending Houston Center
02:14PM 29.5219 -95.0842 191° South 186 214 3,300 -960 Descending Houston Center
02:15PM 29.5200 -95.1325 267° West 187 215 2,100 -600 Descending Houston Center
02:16PM 29.5531 -95.1717 314° West 171 197 2,100 -300 Level Houston Center
02:17PM 29.5836 -95.2064 315° West 139 160 1,500 -720 Descending Houston Center
02:18PM 29.6122 -95.2414 313° West 137 158 700 -600 Descending Houston Center
02:20PM 29.6519 -95.2872 315° West 142 163 100 -420 Descending Houston Center